Time;durP1;ratioP1;P1;durP2;ratioP2;P2;SDS_P1;SDS_P2;PMS_P1;PMS_P2;Temp;Humidity;BMP_temperature;BMP_pressure;BME280_temperature;BME280_humidity;BME280_pressure;Samples;Min_cycle;Max_cycle;Signal;HPM_P1;HPM_P2
2023/04/26 00:00:47;;;;;;;;;;;11.80;99.90;;;;;;5099736;28;19916;-60
2023/04/26 00:03:13;;;;;;;;;;;11.80;99.90;;;;;;5099698;28;19908;-60
2023/04/26 00:05:39;;;;;;;;;;;11.80;99.90;;;;;;5099452;28;19931;-59
2023/04/26 00:08:04;;;;;;;;;;;11.80;99.90;;;;;;5099799;28;19908;-60
2023/04/26 00:10:30;;;;;;;;;;;11.70;99.90;;;;;;5098040;28;19929;-60
2023/04/26 00:12:56;;;;;;;;;;;11.80;99.90;;;;;;5099405;28;19962;-60
2023/04/26 00:15:21;;;;;;;;;;;11.80;99.90;;;;;;5099972;28;19908;-59
2023/04/26 00:17:47;;;;;;;;;;;11.70;99.90;;;;;;5099405;28;20355;-59
2023/04/26 00:20:13;;;;;;;;;;;11.80;99.90;;;;;;5099687;28;19953;-59
2023/04/26 00:22:38;;;;;;;;;;;11.80;99.90;;;;;;5099298;28;19908;-59
2023/04/26 00:25:04;;;;;;;;;;;11.80;99.90;;;;;;5099357;28;19912;-59
2023/04/26 00:27:30;;;;;;;;;;;11.80;99.90;;;;;;5099245;28;19959;-60
2023/04/26 00:29:56;;;;;;;;;;;11.70;99.90;;;;;;5099197;28;20375;-60
2023/04/26 00:32:22;;;;;;;;;;;11.80;99.90;;;;;;5099268;28;20450;-60
2023/04/26 00:34:47;;;;;;;;;;;11.90;99.90;;;;;;5099707;28;19908;-59
2023/04/26 00:37:13;;;;;;;;;;;11.90;99.90;;;;;;5099205;28;19908;-60
2023/04/26 00:39:38;;;;;;;;;;;11.90;99.90;;;;;;5099132;28;19912;-60
2023/04/26 00:42:04;;;;;;;;;;;12.00;99.90;;;;;;5099164;28;19912;-60
2023/04/26 00:44:30;;;;;;;;;;;12.00;99.90;;;;;;5099382;28;19974;-59
2023/04/26 00:46:55;;;;;;;;;;;11.90;99.90;;;;;;5099092;28;19908;-60
2023/04/26 00:49:22;;;;;;;;;;;11.90;99.90;;;;;;5098640;28;19972;-60
2023/04/26 00:51:48;;;;;;;;;;;11.90;99.90;;;;;;5098954;28;19912;-59
2023/04/26 00:54:14;;;;;;;;;;;11.90;99.90;;;;;;5098710;28;19912;-59
2023/04/26 00:56:40;;;;;;;;;;;11.80;99.90;;;;;;5098947;28;19930;-59
2023/04/26 00:59:06;;;;;;;;;;;11.90;99.90;;;;;;5098693;28;19947;-60
2023/04/26 01:01:32;;;;;;;;;;;11.90;99.90;;;;;;5098435;28;19909;-59
2023/04/26 01:03:58;;;;;;;;;;;11.90;99.90;;;;;;5097296;28;19908;-59
2023/04/26 01:06:24;;;;;;;;;;;11.70;99.90;;;;;;5098356;28;20379;-60
2023/04/26 01:08:50;;;;;;;;;;;11.80;99.90;;;;;;5098359;28;19908;-60
2023/04/26 01:11:16;;;;;;;;;;;11.80;99.90;;;;;;5098788;28;19978;-60
2023/04/26 01:13:42;;;;;;;;;;;11.80;99.90;;;;;;5098306;28;19934;-60
2023/04/26 01:16:08;;;;;;;;;;;11.80;99.90;;;;;;5098186;28;19908;-60
2023/04/26 01:18:34;;;;;;;;;;;11.80;99.90;;;;;;5098710;28;19912;-59
2023/04/26 01:21:00;;;;;;;;;;;11.70;99.90;;;;;;5098122;28;20023;-60
2023/04/26 01:23:26;;;;;;;;;;;11.80;99.90;;;;;;5098441;28;19943;-60
2023/04/26 01:25:52;;;;;;;;;;;11.70;99.90;;;;;;5098279;28;19955;-59
2023/04/26 01:28:18;;;;;;;;;;;11.80;99.90;;;;;;5098084;28;19946;-59
2023/04/26 01:30:43;;;;;;;;;;;11.70;99.90;;;;;;5098351;28;19912;-60
2023/04/26 01:33:09;;;;;;;;;;;11.70;99.90;;;;;;5098261;28;19912;-59
2023/04/26 01:35:35;;;;;;;;;;;11.80;99.90;;;;;;5096840;28;20282;-59
2023/04/26 01:38:00;;;;;;;;;;;11.80;99.90;;;;;;5098185;28;19908;-59
2023/04/26 01:40:26;;;;;;;;;;;11.90;99.90;;;;;;5097959;28;19914;-60
2023/04/26 01:42:51;;;;;;;;;;;11.90;99.90;;;;;;5098001;28;19974;-60
2023/04/26 01:45:17;;;;;;;;;;;11.80;99.90;;;;;;5096474;28;19950;-60
2023/04/26 01:47:43;;;;;;;;;;;11.70;99.90;;;;;;5097954;28;19912;-59
2023/04/26 01:50:09;;;;;;;;;;;11.70;99.90;;;;;;5103258;28;20409;-59
2023/04/26 01:52:35;;;;;;;;;;;11.70;99.90;;;;;;5104365;28;19994;-60
2023/04/26 01:55:00;;;;;;;;;;;11.70;99.90;;;;;;5104871;28;19915;-59
2023/04/26 01:57:26;;;;;;;;;;;11.70;99.90;;;;;;5104968;28;20291;-59
2023/04/26 01:59:53;;;;;;;;;;;11.70;99.90;;;;;;5104592;28;20002;-59
2023/04/26 02:02:19;;;;;;;;;;;11.70;99.90;;;;;;5104812;28;19908;-59
2023/04/26 02:04:45;;;;;;;;;;;11.70;99.90;;;;;;5104546;28;19909;-59
2023/04/26 02:07:11;;;;;;;;;;;11.70;99.90;;;;;;5104389;28;19908;-59
2023/04/26 02:09:36;;;;;;;;;;;11.70;99.90;;;;;;5104662;28;19908;-59
2023/04/26 02:12:02;;;;;;;;;;;11.70;99.90;;;;;;5104451;28;20424;-60
2023/04/26 02:14:27;;;;;;;;;;;11.70;99.90;;;;;;5104514;28;19908;-60
2023/04/26 02:16:53;;;;;;;;;;;11.80;99.90;;;;;;5104980;28;20267;-59
2023/04/26 02:19:19;;;;;;;;;;;11.80;99.90;;;;;;5104552;28;19908;-59
2023/04/26 02:21:56;;;;;;;;;;;11.80;99.90;;;;;;5104377;28;19912;-59
2023/04/26 02:24:22;;;;;;;;;;;11.80;99.90;;;;;;5104358;28;19908;-59
2023/04/26 02:26:47;;;;;;;;;;;11.80;99.90;;;;;;5104316;28;19908;-60
2023/04/26 02:29:13;;;;;;;;;;;11.80;99.90;;;;;;5104196;28;19920;-60
2023/04/26 02:31:39;;;;;;;;;;;11.60;99.90;;;;;;5104167;28;19915;-59
2023/04/26 02:34:05;;;;;;;;;;;11.80;99.90;;;;;;5104474;28;19999;-60
2023/04/26 02:36:33;;;;;;;;;;;11.70;99.90;;;;;;5103507;28;20204;-59
2023/04/26 02:38:59;;;;;;;;;;;11.80;99.90;;;;;;5104136;28;20332;-60
2023/04/26 02:41:24;;;;;;;;;;;11.90;99.90;;;;;;5104560;28;19947;-60
2023/04/26 02:43:50;;;;;;;;;;;11.90;99.90;;;;;;5104308;28;19915;-60
2023/04/26 02:46:17;;;;;;;;;;;11.90;99.90;;;;;;5104262;28;19915;-59
2023/04/26 02:48:43;;;;;;;;;;;11.90;99.90;;;;;;5104276;28;19908;-60
2023/04/26 02:51:08;;;;;;;;;;;11.90;99.90;;;;;;5104128;28;20989;-59
2023/04/26 02:53:34;;;;;;;;;;;11.90;99.90;;;;;;5104013;28;20053;-60
2023/04/26 02:56:00;;;;;;;;;;;11.90;99.90;;;;;;5104032;28;19915;-59
2023/04/26 02:58:26;;;;;;;;;;;11.90;99.90;;;;;;5104462;28;19908;-59
2023/04/26 03:00:53;;;;;;;;;;;11.90;99.90;;;;;;5101279;28;19915;-60
2023/04/26 03:03:19;;;;;;;;;;;12.00;99.90;;;;;;5100513;28;19972;-59
2023/04/26 03:05:45;;;;;;;;;;;12.00;99.90;;;;;;5100782;28;20323;-60
2023/04/26 03:08:10;;;;;;;;;;;12.00;99.90;;;;;;5100676;28;19908;-60
2023/04/26 03:10:36;;;;;;;;;;;12.00;99.90;;;;;;5100957;28;20259;-60
2023/04/26 03:13:03;;;;;;;;;;;12.00;99.90;;;;;;5100744;28;20264;-60
2023/04/26 03:15:28;;;;;;;;;;;12.00;99.90;;;;;;5100527;28;20347;-59
2023/04/26 03:17:54;;;;;;;;;;;12.00;99.90;;;;;;5100734;28;19969;-60
2023/04/26 03:20:20;;;;;;;;;;;12.10;99.90;;;;;;5100593;28;19915;-59
2023/04/26 03:22:45;;;;;;;;;;;12.00;99.90;;;;;;5100895;28;20420;-60
2023/04/26 03:25:12;;;;;;;;;;;12.20;99.90;;;;;;5100424;28;20382;-60
2023/04/26 03:27:37;;;;;;;;;;;12.10;99.90;;;;;;5100018;28;19927;-60
2023/04/26 03:30:03;;;;;;;;;;;12.20;99.90;;;;;;5100563;28;19912;-59
2023/04/26 03:32:29;;;;;;;;;;;12.10;99.90;;;;;;5100411;28;20252;-60
2023/04/26 03:34:55;;;;;;;;;;;12.10;99.90;;;;;;5100303;28;19957;-60
2023/04/26 03:37:20;;;;;;;;;;;12.10;99.90;;;;;;5100554;28;19908;-60
2023/04/26 03:39:46;;;;;;;;;;;12.10;99.90;;;;;;5100247;28;19908;-59
2023/04/26 03:42:11;;;;;;;;;;;12.10;99.90;;;;;;5100139;28;19994;-59
2023/04/26 03:44:37;;;;;;;;;;;12.10;99.90;;;;;;5100417;28;20275;-59
2023/04/26 03:47:04;;;;;;;;;;;12.20;99.90;;;;;;5100539;28;20323;-60
2023/04/26 03:49:29;;;;;;;;;;;12.20;99.90;;;;;;5100067;28;19908;-60
2023/04/26 03:51:55;;;;;;;;;;;12.10;99.90;;;;;;5099809;28;20007;-60
2023/04/26 03:54:21;;;;;;;;;;;12.20;99.90;;;;;;5099910;28;19914;-60
2023/04/26 03:56:46;;;;;;;;;;;12.10;99.90;;;;;;5100296;28;19958;-59
2023/04/26 03:59:12;;;;;;;;;;;11.90;99.90;;;;;;5099816;28;20429;-59
2023/04/26 04:01:38;;;;;;;;;;;12.00;99.90;;;;;;5099985;28;19908;-60
2023/04/26 04:04:03;;;;;;;;;;;11.90;99.90;;;;;;5098866;28;20382;-60
2023/04/26 04:06:29;;;;;;;;;;;11.90;99.90;;;;;;5099590;28;19912;-60
2023/04/26 04:08:55;;;;;;;;;;;11.90;99.90;;;;;;5099610;28;19915;-59
2023/04/26 04:11:21;;;;;;;;;;;11.90;99.90;;;;;;5100030;28;20283;-59
2023/04/26 04:13:46;;;;;;;;;;;11.90;99.90;;;;;;5098919;28;19912;-60
2023/04/26 04:16:12;;;;;;;;;;;11.80;99.90;;;;;;5099481;28;19908;-59
2023/04/26 04:18:38;;;;;;;;;;;11.80;99.90;;;;;;5099598;28;19908;-60
2023/04/26 04:21:03;;;;;;;;;;;11.80;99.90;;;;;;5099638;28;19908;-60
2023/04/26 04:23:29;;;;;;;;;;;11.80;99.90;;;;;;5099562;28;19915;-60
2023/04/26 04:25:54;;;;;;;;;;;11.80;99.90;;;;;;5099433;28;20363;-59
2023/04/26 04:28:21;;;;;;;;;;;11.90;99.90;;;;;;5099078;28;20007;-60
2023/04/26 04:30:47;;;;;;;;;;;11.90;99.90;;;;;;5099138;28;19908;-59
2023/04/26 04:33:12;;;;;;;;;;;11.90;99.90;;;;;;5099392;28;20007;-59
2023/04/26 04:35:40;;;;;;;;;;;11.90;99.90;;;;;;5099116;28;19908;-60
2023/04/26 04:38:05;;;;;;;;;;;11.90;99.90;;;;;;5099217;28;19908;-59
2023/04/26 04:40:31;;;;;;;;;;;11.90;99.90;;;;;;5099367;28;20443;-60
2023/04/26 04:42:59;;;;;;;;;;;11.90;99.90;;;;;;5098748;28;19914;-59
2023/04/26 04:45:25;;;;;;;;;;;11.90;99.90;;;;;;5099120;28;19957;-60
2023/04/26 04:47:52;;;;;;;;;;;11.80;99.90;;;;;;5099232;28;19912;-60
2023/04/26 04:50:18;;;;;;;;;;;11.80;99.90;;;;;;5099011;28;19909;-59
2023/04/26 04:52:44;;;;;;;;;;;11.80;99.90;;;;;;5098754;28;19916;-60
2023/04/26 04:55:09;;;;;;;;;;;12.00;99.90;;;;;;5098770;28;20288;-60
2023/04/26 04:57:35;;;;;;;;;;;11.90;99.90;;;;;;5099111;28;19908;-59
2023/04/26 05:00:08;;;;;;;;;;;12.00;99.90;;;;;;5098631;28;19934;-60
2023/04/26 05:02:35;;;;;;;;;;;11.90;99.90;;;;;;5098469;28;19919;-60
2023/04/26 05:05:03;;;;;;;;;;;11.90;99.90;;;;;;5098813;28;19909;-60
2023/04/26 05:07:29;;;;;;;;;;;11.80;99.90;;;;;;5098749;28;20381;-60
2023/04/26 05:09:55;;;;;;;;;;;12.00;99.90;;;;;;5098702;28;19908;-59
2023/04/26 05:12:20;;;;;;;;;;;11.90;99.90;;;;;;5098608;28;19965;-60
2023/04/26 05:14:46;;;;;;;;;;;11.90;99.90;;;;;;5098640;28;19908;-59
2023/04/26 05:17:12;;;;;;;;;;;11.90;99.90;;;;;;5098352;28;20373;-60
2023/04/26 05:19:37;;;;;;;;;;;11.90;99.90;;;;;;5098388;28;19958;-59
2023/04/26 05:22:03;;;;;;;;;;;11.90;99.90;;;;;;5098661;28;19915;-60
2023/04/26 05:24:30;;;;;;;;;;;12.10;99.90;;;;;;5098007;28;19908;-59
2023/04/26 05:26:57;;;;;;;;;;;12.00;99.90;;;;;;5098472;28;19908;-60
2023/04/26 05:29:23;;;;;;;;;;;12.00;99.90;;;;;;5096700;28;19923;-59
2023/04/26 05:31:48;;;;;;;;;;;12.00;99.90;;;;;;5098286;28;19992;-59
2023/04/26 05:34:14;;;;;;;;;;;11.90;99.90;;;;;;5097994;28;19912;-60
2023/04/26 05:36:40;;;;;;;;;;;12.10;99.90;;;;;;5098542;28;19947;-60
2023/04/26 05:39:07;;;;;;;;;;;12.10;99.90;;;;;;5097995;28;19964;-59
2023/04/26 05:41:32;;;;;;;;;;;12.10;99.90;;;;;;5098112;28;19954;-59
2023/04/26 05:43:58;;;;;;;;;;;12.00;99.90;;;;;;5095970;28;19908;-59
2023/04/26 05:46:24;;;;;;;;;;;12.10;99.90;;;;;;5097747;28;19908;-59
2023/04/26 05:48:49;;;;;;;;;;;12.10;99.90;;;;;;5097772;28;19908;-59
2023/04/26 05:51:15;;;;;;;;;;;12.10;99.90;;;;;;5097582;28;19908;-59
2023/04/26 05:53:41;;;;;;;;;;;12.00;99.90;;;;;;5097592;28;20348;-59
2023/04/26 05:56:06;;;;;;;;;;;12.20;99.90;;;;;;5097844;28;19908;-59
2023/04/26 05:58:32;;;;;;;;;;;12.20;99.90;;;;;;5098140;28;20283;-59
2023/04/26 06:00:58;;;;;;;;;;;12.40;99.90;;;;;;5097802;28;19909;-59
2023/04/26 06:03:24;;;;;;;;;;;12.30;99.90;;;;;;5097972;28;19943;-59
2023/04/26 06:05:49;;;;;;;;;;;12.30;99.90;;;;;;5098268;28;19908;-59
2023/04/26 06:08:15;;;;;;;;;;;12.30;99.90;;;;;;5097662;28;19930;-59
2023/04/26 06:10:41;;;;;;;;;;;12.20;99.90;;;;;;5098119;28;19930;-59
2023/04/26 06:13:06;;;;;;;;;;;12.30;99.90;;;;;;5097434;28;19912;-59
2023/04/26 06:15:32;;;;;;;;;;;12.40;99.90;;;;;;5097679;28;19916;-59
2023/04/26 06:17:59;;;;;;;;;;;12.40;99.90;;;;;;5096434;28;19920;-59
2023/04/26 06:20:24;;;;;;;;;;;12.50;99.90;;;;;;5097373;28;19915;-59
2023/04/26 06:22:50;;;;;;;;;;;12.60;99.90;;;;;;5097514;28;19908;-59
2023/04/26 06:25:16;;;;;;;;;;;12.60;99.90;;;;;;5096398;28;19912;-59
2023/04/26 06:27:42;;;;;;;;;;;12.70;99.90;;;;;;5097455;28;19920;-60
2023/04/26 06:30:07;;;;;;;;;;;12.70;99.90;;;;;;5097329;28;19914;-60
2023/04/26 06:32:33;;;;;;;;;;;12.70;99.90;;;;;;5097653;28;19912;-60
2023/04/26 06:34:59;;;;;;;;;;;12.80;99.90;;;;;;5097662;28;19908;-59
2023/04/26 06:37:24;;;;;;;;;;;12.70;99.90;;;;;;5101654;28;20371;-59
2023/04/26 06:39:50;;;;;;;;;;;12.90;99.90;;;;;;5101052;28;19949;-59
2023/04/26 06:42:16;;;;;;;;;;;13.10;99.90;;;;;;5101351;28;20049;-60
2023/04/26 06:44:42;;;;;;;;;;;13.00;99.90;;;;;;5101215;28;19908;-60
2023/04/26 06:47:08;;;;;;;;;;;13.20;99.90;;;;;;5101016;28;19909;-59
2023/04/26 06:49:34;;;;;;;;;;;13.00;99.90;;;;;;5100971;28;19908;-59
2023/04/26 06:52:00;;;;;;;;;;;13.30;99.90;;;;;;5100854;28;20718;-59
2023/04/26 06:54:29;;;;;;;;;;;13.30;99.90;;;;;;5101336;28;19908;-60
2023/04/26 06:56:55;;;;;;;;;;;13.40;99.90;;;;;;5099600;28;19908;-60
2023/04/26 06:59:20;;;;;;;;;;;13.40;99.90;;;;;;5100971;28;19916;-60
2023/04/26 07:01:46;;;;;;;;;;;13.30;99.90;;;;;;5099583;28;20359;-59
2023/04/26 07:04:12;;;;;;;;;;;13.60;99.90;;;;;;5100996;28;19909;-60
2023/04/26 07:06:38;;;;;;;;;;;13.60;99.90;;;;;;5100891;28;20117;-60
2023/04/26 07:09:04;;;;;;;;;;;13.50;99.90;;;;;;5100779;28;19970;-59
2023/04/26 07:11:30;;;;;;;;;;;13.60;99.90;;;;;;5100831;28;19908;-60
2023/04/26 07:13:55;;;;;;;;;;;13.50;99.90;;;;;;5100928;28;19916;-60
2023/04/26 07:16:21;;;;;;;;;;;13.60;99.90;;;;;;5100582;28;19940;-60
2023/04/26 07:18:47;;;;;;;;;;;13.80;99.90;;;;;;5100914;28;20390;-59
2023/04/26 07:21:13;;;;;;;;;;;14.00;99.90;;;;;;5100970;28;19908;-59
2023/04/26 07:23:38;;;;;;;;;;;14.00;99.90;;;;;;5100557;28;19908;-60
2023/04/26 07:26:04;;;;;;;;;;;13.90;99.90;;;;;;5100841;28;19962;-59
2023/04/26 07:28:30;;;;;;;;;;;13.90;99.90;;;;;;5100213;28;19927;-60
2023/04/26 07:30:56;;;;;;;;;;;13.90;99.90;;;;;;5100072;28;20374;-59
2023/04/26 07:33:22;;;;;;;;;;;13.90;99.90;;;;;;5100504;28;19912;-60
2023/04/26 07:35:55;;;;;;;;;;;13.80;99.90;;;;;;5100145;28;19908;-60
2023/04/26 07:38:21;;;;;;;;;;;13.90;99.90;;;;;;5100394;28;19909;-60
2023/04/26 07:40:46;;;;;;;;;;;13.90;99.90;;;;;;5099929;28;19927;-60
2023/04/26 07:43:14;;;;;;;;;;;13.90;99.90;;;;;;5099938;28;19948;-60
2023/04/26 07:45:40;;;;;;;;;;;13.80;99.90;;;;;;5100531;28;19908;-60
2023/04/26 07:48:05;;;;;;;;;;;13.80;99.90;;;;;;5099202;28;19908;-60
2023/04/26 07:50:31;;;;;;;;;;;13.70;99.90;;;;;;5100139;28;20435;-59
2023/04/26 07:52:57;;;;;;;;;;;13.90;99.90;;;;;;5100275;28;20283;-59
2023/04/26 07:55:22;;;;;;;;;;;14.00;99.90;;;;;;5099909;28;19915;-59
2023/04/26 07:57:48;;;;;;;;;;;14.00;99.90;;;;;;5100086;28;19909;-59
2023/04/26 08:00:15;;;;;;;;;;;14.10;99.90;;;;;;5099613;28;19915;-60
2023/04/26 08:02:41;;;;;;;;;;;14.20;99.90;;;;;;5099991;28;19915;-59
2023/04/26 08:05:07;;;;;;;;;;;14.20;99.90;;;;;;5099851;28;19908;-59
2023/04/26 08:07:33;;;;;;;;;;;14.10;99.90;;;;;;5099587;28;19908;-60
2023/04/26 08:09:58;;;;;;;;;;;14.10;99.90;;;;;;5100113;28;20304;-59
2023/04/26 08:12:24;;;;;;;;;;;14.10;99.90;;;;;;5100147;28;19912;-59
2023/04/26 08:14:50;;;;;;;;;;;14.10;99.90;;;;;;5098131;28;19908;-60
2023/04/26 08:17:15;;;;;;;;;;;14.20;99.90;;;;;;5099469;28;20008;-60
2023/04/26 08:19:41;;;;;;;;;;;14.20;99.90;;;;;;5099948;28;19930;-59
2023/04/26 08:22:07;;;;;;;;;;;14.30;99.90;;;;;;5099385;28;19971;-60
2023/04/26 08:24:32;;;;;;;;;;;14.40;99.90;;;;;;5099113;28;20329;-60
2023/04/26 08:26:58;;;;;;;;;;;14.50;99.90;;;;;;5099305;28;19908;-60
2023/04/26 08:29:26;;;;;;;;;;;14.50;99.90;;;;;;5099090;28;19920;-59
2023/04/26 08:31:52;;;;;;;;;;;14.40;99.90;;;;;;5099010;28;19908;-60
2023/04/26 08:34:17;;;;;;;;;;;14.50;99.90;;;;;;5099186;28;20257;-60
2023/04/26 08:36:44;;;;;;;;;;;14.40;99.90;;;;;;5098934;28;19908;-60
2023/04/26 08:39:13;;;;;;;;;;;14.40;99.90;;;;;;5098938;28;20367;-59
2023/04/26 08:41:42;;;;;;;;;;;14.60;99.90;;;;;;5099024;28;20264;-60
2023/04/26 08:44:08;;;;;;;;;;;14.40;99.90;;;;;;5099082;28;19916;-59
2023/04/26 08:47:00;;;;;;;;;;;14.30;99.90;;;;;;5099264;28;20379;-60
2023/04/26 08:49:26;;;;;;;;;;;14.50;99.90;;;;;;5098852;28;20259;-60
2023/04/26 08:51:52;;;;;;;;;;;14.40;99.90;;;;;;5098971;28;19987;-60
2023/04/26 08:54:18;;;;;;;;;;;14.30;99.90;;;;;;5099008;28;20279;-60
2023/04/26 08:56:45;;;;;;;;;;;14.30;99.90;;;;;;5098977;28;20366;-60
2023/04/26 08:59:11;;;;;;;;;;;14.40;99.90;;;;;;5097921;28;19908;-60
2023/04/26 09:01:42;;;;;;;;;;;14.60;99.90;;;;;;5099114;28;20007;-60
2023/04/26 09:04:08;;;;;;;;;;;14.70;99.90;;;;;;5098734;28;19916;-60
2023/04/26 09:06:34;;;;;;;;;;;14.90;99.90;;;;;;5098819;28;20400;-60
2023/04/26 09:09:03;;;;;;;;;;;15.00;99.90;;;;;;5098671;28;19915;-60
2023/04/26 09:11:29;;;;;;;;;;;15.70;99.90;;;;;;5098697;28;19915;-60
2023/04/26 09:13:55;;;;;;;;;;;15.10;99.90;;;;;;5098566;28;20438;-60
2023/04/26 09:16:33;;;;;;;;;;;14.90;99.90;;;;;;5098805;28;19974;-60
2023/04/26 09:18:59;;;;;;;;;;;14.80;99.90;;;;;;5098407;28;19958;-60
2023/04/26 09:21:25;;;;;;;;;;;14.90;99.90;;;;;;5098431;28;19912;-60
2023/04/26 09:23:57;;;;;;;;;;;15.00;99.90;;;;;;5098251;28;19908;-60
2023/04/26 09:26:22;;;;;;;;;;;15.00;99.90;;;;;;5098384;28;19940;-60
2023/04/26 09:28:49;;;;;;;;;;;14.80;99.90;;;;;;5098186;28;20386;-60
2023/04/26 09:31:33;;;;;;;;;;;15.00;99.90;;;;;;5098679;28;19912;-60
2023/04/26 09:33:59;;;;;;;;;;;15.00;99.90;;;;;;5098112;28;19973;-60
2023/04/26 09:36:25;;;;;;;;;;;15.20;99.90;;;;;;5098166;28;19919;-60
2023/04/26 09:38:50;;;;;;;;;;;15.20;99.90;;;;;;5098265;28;19908;-60
2023/04/26 09:41:16;;;;;;;;;;;15.20;99.90;;;;;;5098101;28;20010;-60
2023/04/26 09:43:41;;;;;;;;;;;15.20;99.90;;;;;;5098079;28;19908;-60
2023/04/26 09:46:07;;;;;;;;;;;15.20;99.90;;;;;;5098266;28;19991;-60
2023/04/26 09:48:33;;;;;;;;;;;15.40;99.90;;;;;;5098425;28;19908;-60
2023/04/26 09:51:01;;;;;;;;;;;15.40;99.90;;;;;;5097916;28;20003;-60
2023/04/26 09:53:33;;;;;;;;;;;15.30;99.90;;;;;;5098057;28;19944;-60
2023/04/26 09:56:09;;;;;;;;;;;15.30;99.90;;;;;;5097667;28;19908;-59
2023/04/26 09:58:36;;;;;;;;;;;15.30;99.90;;;;;;5097676;28;19919;-59
2023/04/26 10:01:02;;;;;;;;;;;15.40;99.90;;;;;;5096417;28;20261;-60
2023/04/26 10:03:28;;;;;;;;;;;15.50;99.90;;;;;;5097555;28;19911;-60
2023/04/26 10:05:54;;;;;;;;;;;15.70;99.90;;;;;;5097748;28;19959;-60
2023/04/26 10:08:19;;;;;;;;;;;15.80;99.90;;;;;;5097997;28;19998;-60
2023/04/26 10:10:46;;;;;;;;;;;15.90;99.90;;;;;;5099664;28;19912;-60
2023/04/26 10:13:12;;;;;;;;;;;16.00;99.90;;;;;;5102065;28;19912;-60
2023/04/26 10:15:38;;;;;;;;;;;16.10;99.90;;;;;;5101941;28;19908;-60
2023/04/26 10:18:04;;;;;;;;;;;16.20;99.90;;;;;;5101746;28;19943;-60
2023/04/26 10:20:30;;;;;;;;;;;16.50;99.90;;;;;;5101673;28;19908;-60
2023/04/26 10:23:02;;;;;;;;;;;16.70;99.90;;;;;;5101687;28;19979;-60
2023/04/26 10:25:38;;;;;;;;;;;16.70;99.90;;;;;;5101823;28;20249;-60
2023/04/26 10:28:03;;;;;;;;;;;16.80;99.90;;;;;;5101502;28;19963;-60
2023/04/26 10:30:31;;;;;;;;;;;17.00;99.90;;;;;;5101598;28;19908;-60
2023/04/26 10:32:59;;;;;;;;;;;17.00;99.90;;;;;;5101405;28;19912;-60
2023/04/26 10:35:25;;;;;;;;;;;17.00;99.90;;;;;;5101316;28;19908;-60
2023/04/26 10:38:00;;;;;;;;;;;16.80;99.90;;;;;;5101534;28;19908;-60
2023/04/26 10:40:38;;;;;;;;;;;17.00;99.90;;;;;;5101243;28;19908;-60
2023/04/26 10:43:19;;;;;;;;;;;16.70;99.90;;;;;;5101485;28;19909;-60
2023/04/26 10:45:45;;;;;;;;;;;16.50;99.90;;;;;;5101222;28;19908;-60
2023/04/26 10:48:17;;;;;;;;;;;16.70;99.90;;;;;;5101285;28;19995;-60
2023/04/26 10:51:07;;;;;;;;;;;16.60;99.90;;;;;;5101519;28;19946;-60
2023/04/26 10:53:50;;;;;;;;;;;16.50;99.90;;;;;;5100947;28;19918;-60
2023/04/26 10:56:19;;;;;;;;;;;16.80;99.90;;;;;;5101189;28;19915;-60
2023/04/26 10:58:45;;;;;;;;;;;17.00;99.90;;;;;;5099519;28;19912;-60
2023/04/26 11:01:17;;;;;;;;;;;17.00;99.90;;;;;;5100854;28;20003;-60
2023/04/26 11:04:03;;;;;;;;;;;16.80;99.90;;;;;;5101292;28;20299;-60
2023/04/26 11:06:47;;;;;;;;;;;16.80;99.90;;;;;;5101434;28;20000;-60
2023/04/26 11:09:31;;;;;;;;;;;16.70;99.90;;;;;;5100708;28;19957;-60
2023/04/26 11:11:56;;;;;;;;;;;16.70;99.90;;;;;;5100786;28;19908;-60
2023/04/26 11:14:22;;;;;;;;;;;16.60;99.90;;;;;;5100664;28;19961;-60
2023/04/26 11:16:48;;;;;;;;;;;16.70;99.90;;;;;;5100588;28;19909;-60
2023/04/26 11:19:13;;;;;;;;;;;16.80;99.90;;;;;;5100818;28;20325;-60
2023/04/26 11:21:39;;;;;;;;;;;16.60;99.90;;;;;;5099604;28;19916;-60
2023/04/26 11:24:05;;;;;;;;;;;16.60;99.90;;;;;;5100543;28;19912;-60
2023/04/26 11:26:32;;;;;;;;;;;16.50;99.90;;;;;;5100871;28;19915;-60
2023/04/26 11:28:57;;;;;;;;;;;16.40;99.90;;;;;;5099921;28;20411;-60
2023/04/26 11:31:23;;;;;;;;;;;16.50;99.90;;;;;;5100620;28;19973;-60
2023/04/26 11:33:49;;;;;;;;;;;16.50;99.90;;;;;;5100351;28;19949;-60
2023/04/26 11:36:15;;;;;;;;;;;16.50;99.90;;;;;;5100416;28;20504;-60
2023/04/26 11:38:40;;;;;;;;;;;16.50;99.90;;;;;;5100351;28;19950;-60
2023/04/26 11:41:06;;;;;;;;;;;16.70;99.90;;;;;;5100234;28;19972;-60
2023/04/26 11:43:36;;;;;;;;;;;16.90;99.90;;;;;;5099994;28;19915;-60
2023/04/26 11:46:02;;;;;;;;;;;16.90;99.90;;;;;;5100238;28;20359;-60
2023/04/26 11:48:28;;;;;;;;;;;17.00;99.90;;;;;;5100153;28;19908;-60
2023/04/26 11:50:58;;;;;;;;;;;17.10;99.90;;;;;;5100194;28;19996;-60
2023/04/26 11:53:24;;;;;;;;;;;17.30;99.90;;;;;;5099912;28;19959;-60
2023/04/26 11:55:50;;;;;;;;;;;17.60;99.90;;;;;;5100261;28;19915;-60
2023/04/26 11:58:16;;;;;;;;;;;17.70;99.90;;;;;;5099671;28;20364;-60
2023/04/26 12:01:04;;;;;;;;;;;17.80;99.90;;;;;;5099784;28;19953;-60
2023/04/26 12:03:31;;;;;;;;;;;18.00;99.90;;;;;;5100207;28;19908;-60
2023/04/26 12:05:56;;;;;;;;;;;18.20;99.90;;;;;;5099634;28;19908;-60
2023/04/26 12:08:26;;;;;;;;;;;18.90;99.90;;;;;;5099416;28;19963;-60
2023/04/26 12:10:51;;;;;;;;;;;19.10;99.90;;;;;;5099840;28;19908;-60
2023/04/26 12:13:19;;;;;;;;;;;19.20;99.90;;;;;;5099332;28;20371;-60
2023/04/26 12:15:50;;;;;;;;;;;19.20;99.90;;;;;;5099463;28;19943;-60
2023/04/26 12:18:15;;;;;;;;;;;19.30;99.90;;;;;;5099105;28;19909;-60
2023/04/26 12:20:41;;;;;;;;;;;19.50;99.90;;;;;;5097985;28;20395;-60
2023/04/26 12:23:08;;;;;;;;;;;19.60;99.90;;;;;;5099385;28;19963;-60
2023/04/26 12:25:34;;;;;;;;;;;19.60;99.90;;;;;;5099381;28;19914;-60
2023/04/26 12:28:03;;;;;;;;;;;19.50;99.90;;;;;;5099318;28;19927;-60
2023/04/26 12:30:29;;;;;;;;;;;19.40;99.90;;;;;;5099149;28;19912;-60
2023/04/26 12:32:54;;;;;;;;;;;19.50;99.90;;;;;;5099042;28;19912;-60
2023/04/26 12:35:21;;;;;;;;;;;19.40;99.90;;;;;;5099665;28;19991;-60
2023/04/26 12:37:48;;;;;;;;;;;19.60;99.90;;;;;;5099168;28;19908;-60
2023/04/26 12:40:15;;;;;;;;;;;19.80;99.90;;;;;;5099165;28;20359;-60
2023/04/26 12:42:40;;;;;;;;;;;20.00;99.90;;;;;;5098725;28;19908;-60
2023/04/26 12:45:07;;;;;;;;;;;20.10;99.90;;;;;;5098890;28;19915;-60
2023/04/26 12:47:33;;;;;;;;;;;20.30;99.90;;;;;;5098885;28;19961;-60
2023/04/26 12:49:59;;;;;;;;;;;20.30;99.90;;;;;;5099191;28;20078;-60
2023/04/26 12:52:26;;;;;;;;;;;20.30;99.90;;;;;;5098672;28;19916;-60
2023/04/26 12:54:52;;;;;;;;;;;20.30;99.90;;;;;;5098880;28;19938;-60
2023/04/26 12:57:18;;;;;;;;;;;20.40;99.90;;;;;;5098774;28;20351;-60
2023/04/26 12:59:44;;;;;;;;;;;20.10;99.90;;;;;;5098604;28;19914;-60
2023/04/26 13:02:09;;;;;;;;;;;19.70;99.90;;;;;;5098700;28;19908;-60
2023/04/26 13:04:35;;;;;;;;;;;19.50;99.90;;;;;;5098697;28;19915;-60
2023/04/26 13:07:01;;;;;;;;;;;19.80;99.90;;;;;;5096975;28;19909;-60
2023/04/26 13:09:26;;;;;;;;;;;19.90;99.90;;;;;;5098589;28;19947;-60
2023/04/26 13:11:52;;;;;;;;;;;20.00;99.90;;;;;;5098515;28;19909;-60
2023/04/26 13:14:17;;;;;;;;;;;20.20;99.90;;;;;;5098445;28;19999;-60
2023/04/26 13:16:43;;;;;;;;;;;19.80;99.90;;;;;;5098886;28;19908;-60
2023/04/26 13:19:09;;;;;;;;;;;20.20;99.90;;;;;;5098777;28;19943;-60
2023/04/26 13:21:35;;;;;;;;;;;20.50;99.90;;;;;;5098552;28;19946;-60
2023/04/26 13:24:01;;;;;;;;;;;20.70;99.90;;;;;;5098511;28;19920;-60
2023/04/26 13:26:27;;;;;;;;;;;20.30;99.90;;;;;;5098322;28;19908;-61
2023/04/26 13:28:52;;;;;;;;;;;20.00;99.90;;;;;;5098112;28;19920;-60
2023/04/26 13:31:19;;;;;;;;;;;19.90;99.90;;;;;;5098260;28;20415;-60
2023/04/26 13:33:48;;;;;;;;;;;20.10;99.90;;;;;;5098210;28;19961;-60
2023/04/26 13:36:14;;;;;;;;;;;20.00;99.90;;;;;;5098408;28;19936;-60
2023/04/26 13:38:40;;;;;;;;;;;19.60;99.90;;;;;;5098315;28;19953;-60
2023/04/26 13:41:06;;;;;;;;;;;19.10;99.90;;;;;;5098464;28;19908;-60
2023/04/26 13:43:31;;;;;;;;;;;19.10;99.90;;;;;;5098112;28;19908;-60
2023/04/26 13:45:57;;;;;;;;;;;18.90;99.90;;;;;;5097625;28;19908;-60
2023/04/26 13:48:23;;;;;;;;;;;18.90;99.90;;;;;;5098421;28;19909;-60
2023/04/26 13:50:48;;;;;;;;;;;18.80;99.90;;;;;;5098478;28;20252;-60
2023/04/26 13:53:14;;;;;;;;;;;18.80;99.90;;;;;;5097812;28;19916;-60
2023/04/26 13:55:39;;;;;;;;;;;19.00;99.90;;;;;;5097736;28;19908;-60
2023/04/26 13:58:05;;;;;;;;;;;18.90;99.90;;;;;;5097931;28;19934;-60
2023/04/26 14:00:31;;;;;;;;;;;18.80;99.90;;;;;;5098017;28;19915;-60
2023/04/26 14:02:56;;;;;;;;;;;18.70;99.90;;;;;;5097857;28;19916;-60
2023/04/26 14:05:22;;;;;;;;;;;18.90;99.90;;;;;;5098333;28;19909;-60
2023/04/26 14:07:48;;;;;;;;;;;18.90;99.90;;;;;;5097805;28;20015;-60
2023/04/26 14:10:14;;;;;;;;;;;19.10;99.90;;;;;;5098327;28;19915;-60
2023/04/26 14:12:40;;;;;;;;;;;19.40;99.90;;;;;;5098015;28;19912;-60